sensor_id;sensor_type;location;lat;lon;timestamp;temperature;humidity
12700;DHT22;6414;49.570;6.060;2023-06-22T00:00:21;19.70;99.90
12700;DHT22;6414;49.570;6.060;2023-06-22T00:03:07;19.60;99.90
12700;DHT22;6414;49.570;6.060;2023-06-22T00:05:53;19.60;99.90
12700;DHT22;6414;49.570;6.060;2023-06-22T00:08:39;19.50;99.90
12700;DHT22;6414;49.570;6.060;2023-06-22T00:11:26;19.40;99.90
12700;DHT22;6414;49.570;6.060;2023-06-22T00:14:11;19.40;99.90
12700;DHT22;6414;49.570;6.060;2023-06-22T00:16:58;19.30;99.90
12700;DHT22;6414;49.570;6.060;2023-06-22T00:19:46;19.30;99.90
12700;DHT22;6414;49.570;6.060;2023-06-22T00:22:31;19.30;99.90
12700;DHT22;6414;49.570;6.060;2023-06-22T00:25:17;19.30;99.90
12700;DHT22;6414;49.570;6.060;2023-06-22T00:28:07;19.20;99.90
12700;DHT22;6414;49.570;6.060;2023-06-22T00:30:53;19.20;99.90
12700;DHT22;6414;49.570;6.060;2023-06-22T00:33:39;19.30;99.90
12700;DHT22;6414;49.570;6.060;2023-06-22T00:36:26;19.30;99.90
12700;DHT22;6414;49.570;6.060;2023-06-22T00:39:12;19.40;99.90
12700;DHT22;6414;49.570;6.060;2023-06-22T00:41:57;19.50;99.90
12700;DHT22;6414;49.570;6.060;2023-06-22T00:44:44;19.40;99.90
12700;DHT22;6414;49.570;6.060;2023-06-22T00:47:31;19.40;99.90
12700;DHT22;6414;49.570;6.060;2023-06-22T00:50:18;19.20;99.90
12700;DHT22;6414;49.570;6.060;2023-06-22T00:53:05;19.30;99.90
12700;DHT22;6414;49.570;6.060;2023-06-22T00:55:50;19.30;99.90
12700;DHT22;6414;49.570;6.060;2023-06-22T00:58:36;19.30;99.90
12700;DHT22;6414;49.570;6.060;2023-06-22T01:01:22;19.20;99.90
12700;DHT22;6414;49.570;6.060;2023-06-22T01:04:08;19.10;99.90
12700;DHT22;6414;49.570;6.060;2023-06-22T01:06:55;19.00;99.90
12700;DHT22;6414;49.570;6.060;2023-06-22T01:09:44;19.00;99.90
12700;DHT22;6414;49.570;6.060;2023-06-22T01:12:26;18.90;99.90
12700;DHT22;6414;49.570;6.060;2023-06-22T01:15:37;18.90;99.90
12700;DHT22;6414;49.570;6.060;2023-06-22T01:17:58;18.90;99.90
12700;DHT22;6414;49.570;6.060;2023-06-22T01:20:45;18.80;99.90
12700;DHT22;6414;49.570;6.060;2023-06-22T01:26:57;18.80;99.90
12700;DHT22;6414;49.570;6.060;2023-06-22T01:29:41;18.90;99.90
12700;DHT22;6414;49.570;6.060;2023-06-22T01:32:30;18.90;99.90
12700;DHT22;6414;49.570;6.060;2023-06-22T01:35:16;18.90;99.90
12700;DHT22;6414;49.570;6.060;2023-06-22T01:38:02;18.80;99.90
12700;DHT22;6414;49.570;6.060;2023-06-22T01:40:49;18.80;99.90
12700;DHT22;6414;49.570;6.060;2023-06-22T01:43:36;18.80;99.90
12700;DHT22;6414;49.570;6.060;2023-06-22T01:46:22;18.80;99.90
12700;DHT22;6414;49.570;6.060;2023-06-22T01:49:07;18.80;99.90
12700;DHT22;6414;49.570;6.060;2023-06-22T01:51:55;18.70;99.90
12700;DHT22;6414;49.570;6.060;2023-06-22T01:54:41;18.70;99.90
12700;DHT22;6414;49.570;6.060;2023-06-22T01:57:28;18.60;99.90
12700;DHT22;6414;49.570;6.060;2023-06-22T02:00:17;18.70;99.90
12700;DHT22;6414;49.570;6.060;2023-06-22T02:05:54;18.70;99.90
12700;DHT22;6414;49.570;6.060;2023-06-22T02:08:40;18.60;99.90
12700;DHT22;6414;49.570;6.060;2023-06-22T02:11:25;18.70;99.90
12700;DHT22;6414;49.570;6.060;2023-06-22T02:14:12;18.70;99.90
12700;DHT22;6414;49.570;6.060;2023-06-22T02:16:59;18.60;99.90
12700;DHT22;6414;49.570;6.060;2023-06-22T02:19:44;18.70;99.90
12700;DHT22;6414;49.570;6.060;2023-06-22T02:22:31;18.70;99.90
12700;DHT22;6414;49.570;6.060;2023-06-22T02:25:18;18.70;99.90
12700;DHT22;6414;49.570;6.060;2023-06-22T02:28:04;18.70;99.90
12700;DHT22;6414;49.570;6.060;2023-06-22T02:30:50;18.70;99.90
12700;DHT22;6414;49.570;6.060;2023-06-22T02:33:36;18.70;99.90
12700;DHT22;6414;49.570;6.060;2023-06-22T02:36:23;18.70;99.90
12700;DHT22;6414;49.570;6.060;2023-06-22T02:39:09;18.70;99.90
12700;DHT22;6414;49.570;6.060;2023-06-22T02:41:56;18.70;99.90
12700;DHT22;6414;49.570;6.060;2023-06-22T02:44:43;18.70;99.90
12700;DHT22;6414;49.570;6.060;2023-06-22T02:47:29;18.70;99.90
12700;DHT22;6414;49.570;6.060;2023-06-22T02:50:15;18.70;99.90
12700;DHT22;6414;49.570;6.060;2023-06-22T02:53:02;18.60;99.90
12700;DHT22;6414;49.570;6.060;2023-06-22T02:55:48;18.60;99.90
12700;DHT22;6414;49.570;6.060;2023-06-22T02:58:35;18.60;99.90
12700;DHT22;6414;49.570;6.060;2023-06-22T03:01:22;18.70;99.90
12700;DHT22;6414;49.570;6.060;2023-06-22T03:04:08;18.70;99.90
12700;DHT22;6414;49.570;6.060;2023-06-22T03:06:54;18.60;99.90
12700;DHT22;6414;49.570;6.060;2023-06-22T03:09:41;18.60;99.90
12700;DHT22;6414;49.570;6.060;2023-06-22T03:12:27;18.60;99.90
12700;DHT22;6414;49.570;6.060;2023-06-22T03:15:14;18.60;99.90
12700;DHT22;6414;49.570;6.060;2023-06-22T03:18:00;18.70;99.90
12700;DHT22;6414;49.570;6.060;2023-06-22T03:20:46;18.70;99.90
12700;DHT22;6414;49.570;6.060;2023-06-22T03:23:32;18.70;99.90
12700;DHT22;6414;49.570;6.060;2023-06-22T03:26:19;18.60;99.90
12700;DHT22;6414;49.570;6.060;2023-06-22T03:29:06;18.70;99.90
12700;DHT22;6414;49.570;6.060;2023-06-22T03:31:52;18.60;99.90
12700;DHT22;6414;49.570;6.060;2023-06-22T03:34:38;18.70;99.90
12700;DHT22;6414;49.570;6.060;2023-06-22T03:37:25;18.60;99.90
12700;DHT22;6414;49.570;6.060;2023-06-22T03:40:11;18.60;99.90
12700;DHT22;6414;49.570;6.060;2023-06-22T03:42:57;18.60;99.90
12700;DHT22;6414;49.570;6.060;2023-06-22T03:45:44;18.60;99.90
12700;DHT22;6414;49.570;6.060;2023-06-22T03:48:30;18.60;99.90
12700;DHT22;6414;49.570;6.060;2023-06-22T03:51:16;18.60;99.90
12700;DHT22;6414;49.570;6.060;2023-06-22T03:54:02;18.50;99.90
12700;DHT22;6414;49.570;6.060;2023-06-22T03:56:48;18.60;99.90
12700;DHT22;6414;49.570;6.060;2023-06-22T03:59:35;18.60;99.90
12700;DHT22;6414;49.570;6.060;2023-06-22T04:02:21;18.60;99.90
12700;DHT22;6414;49.570;6.060;2023-06-22T04:05:11;18.60;99.90
12700;DHT22;6414;49.570;6.060;2023-06-22T04:07:54;18.60;99.90
12700;DHT22;6414;49.570;6.060;2023-06-22T04:10:40;18.70;99.90
12700;DHT22;6414;49.570;6.060;2023-06-22T04:13:27;18.70;99.90
12700;DHT22;6414;49.570;6.060;2023-06-22T04:16:14;18.70;99.90
12700;DHT22;6414;49.570;6.060;2023-06-22T04:19:01;18.70;99.90
12700;DHT22;6414;49.570;6.060;2023-06-22T04:21:48;18.70;99.90
12700;DHT22;6414;49.570;6.060;2023-06-22T04:24:34;18.70;99.90
12700;DHT22;6414;49.570;6.060;2023-06-22T04:27:20;18.60;99.90
12700;DHT22;6414;49.570;6.060;2023-06-22T04:30:07;18.70;99.90
12700;DHT22;6414;49.570;6.060;2023-06-22T04:32:52;18.60;99.90
12700;DHT22;6414;49.570;6.060;2023-06-22T04:35:40;18.60;99.90
12700;DHT22;6414;49.570;6.060;2023-06-22T04:38:28;18.60;99.90
12700;DHT22;6414;49.570;6.060;2023-06-22T04:41:14;18.60;99.90
12700;DHT22;6414;49.570;6.060;2023-06-22T04:44:47;18.70;99.90
12700;DHT22;6414;49.570;6.060;2023-06-22T04:47:34;18.80;99.90
12700;DHT22;6414;49.570;6.060;2023-06-22T04:50:20;18.80;99.90
12700;DHT22;6414;49.570;6.060;2023-06-22T04:53:06;18.90;99.90
12700;DHT22;6414;49.570;6.060;2023-06-22T04:55:52;18.80;99.90
12700;DHT22;6414;49.570;6.060;2023-06-22T04:58:39;18.80;99.90
12700;DHT22;6414;49.570;6.060;2023-06-22T05:01:25;19.00;99.90
12700;DHT22;6414;49.570;6.060;2023-06-22T05:04:11;19.00;99.90
12700;DHT22;6414;49.570;6.060;2023-06-22T05:06:59;19.20;99.90
12700;DHT22;6414;49.570;6.060;2023-06-22T05:09:44;19.20;99.90
12700;DHT22;6414;49.570;6.060;2023-06-22T05:12:30;19.20;99.90
12700;DHT22;6414;49.570;6.060;2023-06-22T05:15:16;19.20;99.90
12700;DHT22;6414;49.570;6.060;2023-06-22T05:18:03;19.20;99.90
12700;DHT22;6414;49.570;6.060;2023-06-22T05:20:49;19.20;99.90
12700;DHT22;6414;49.570;6.060;2023-06-22T05:23:36;19.30;99.90
12700;DHT22;6414;49.570;6.060;2023-06-22T05:26:22;19.30;99.90
12700;DHT22;6414;49.570;6.060;2023-06-22T05:29:08;19.30;99.90
12700;DHT22;6414;49.570;6.060;2023-06-22T05:31:55;19.30;99.90
12700;DHT22;6414;49.570;6.060;2023-06-22T05:34:41;19.30;99.90
12700;DHT22;6414;49.570;6.060;2023-06-22T05:37:28;19.30;99.90
12700;DHT22;6414;49.570;6.060;2023-06-22T05:40:14;19.40;99.90
12700;DHT22;6414;49.570;6.060;2023-06-22T05:43:00;19.30;99.90
12700;DHT22;6414;49.570;6.060;2023-06-22T05:45:46;19.50;99.90
12700;DHT22;6414;49.570;6.060;2023-06-22T05:48:32;19.70;99.90
12700;DHT22;6414;49.570;6.060;2023-06-22T05:51:18;19.80;99.90
12700;DHT22;6414;49.570;6.060;2023-06-22T05:54:04;20.00;99.90
12700;DHT22;6414;49.570;6.060;2023-06-22T05:56:52;20.00;99.90
12700;DHT22;6414;49.570;6.060;2023-06-22T05:59:38;20.00;99.90
12700;DHT22;6414;49.570;6.060;2023-06-22T06:02:24;20.00;99.90
12700;DHT22;6414;49.570;6.060;2023-06-22T06:05:11;20.10;99.90
12700;DHT22;6414;49.570;6.060;2023-06-22T06:07:57;20.10;99.90
12700;DHT22;6414;49.570;6.060;2023-06-22T06:10:44;20.00;99.90
12700;DHT22;6414;49.570;6.060;2023-06-22T06:13:30;20.00;99.90
12700;DHT22;6414;49.570;6.060;2023-06-22T06:16:16;20.00;99.90
12700;DHT22;6414;49.570;6.060;2023-06-22T06:19:03;20.00;99.90
12700;DHT22;6414;49.570;6.060;2023-06-22T06:21:50;20.20;99.90
12700;DHT22;6414;49.570;6.060;2023-06-22T06:24:35;20.10;99.90
12700;DHT22;6414;49.570;6.060;2023-06-22T06:27:21;20.40;99.90
12700;DHT22;6414;49.570;6.060;2023-06-22T06:30:07;20.40;99.90
12700;DHT22;6414;49.570;6.060;2023-06-22T06:32:54;20.50;99.90
12700;DHT22;6414;49.570;6.060;2023-06-22T06:35:40;20.50;99.90
12700;DHT22;6414;49.570;6.060;2023-06-22T06:38:27;20.60;99.90
12700;DHT22;6414;49.570;6.060;2023-06-22T06:41:14;20.60;99.90
12700;DHT22;6414;49.570;6.060;2023-06-22T06:43:59;20.70;99.90
12700;DHT22;6414;49.570;6.060;2023-06-22T06:46:45;20.70;99.90
12700;DHT22;6414;49.570;6.060;2023-06-22T06:49:33;20.70;99.90
12700;DHT22;6414;49.570;6.060;2023-06-22T06:52:19;20.70;99.90
12700;DHT22;6414;49.570;6.060;2023-06-22T06:55:05;21.00;99.90
12700;DHT22;6414;49.570;6.060;2023-06-22T06:57:54;20.90;99.90
12700;DHT22;6414;49.570;6.060;2023-06-22T07:00:40;21.10;99.90
12700;DHT22;6414;49.570;6.060;2023-06-22T07:03:26;21.20;99.90
12700;DHT22;6414;49.570;6.060;2023-06-22T07:06:13;21.30;99.90
12700;DHT22;6414;49.570;6.060;2023-06-22T07:08:58;21.30;99.90
12700;DHT22;6414;49.570;6.060;2023-06-22T07:11:44;21.40;99.90
12700;DHT22;6414;49.570;6.060;2023-06-22T07:14:33;21.60;99.90
12700;DHT22;6414;49.570;6.060;2023-06-22T07:17:19;21.60;99.90
12700;DHT22;6414;49.570;6.060;2023-06-22T07:20:06;21.90;99.90
12700;DHT22;6414;49.570;6.060;2023-06-22T07:22:52;22.00;99.90
12700;DHT22;6414;49.570;6.060;2023-06-22T07:25:39;22.40;99.90
12700;DHT22;6414;49.570;6.060;2023-06-22T07:28:25;22.30;99.90
12700;DHT22;6414;49.570;6.060;2023-06-22T07:31:11;22.60;99.90
12700;DHT22;6414;49.570;6.060;2023-06-22T07:33:57;22.60;99.90
12700;DHT22;6414;49.570;6.060;2023-06-22T07:36:44;22.50;99.90
12700;DHT22;6414;49.570;6.060;2023-06-22T07:39:30;22.20;99.90
12700;DHT22;6414;49.570;6.060;2023-06-22T07:42:17;22.20;99.90
12700;DHT22;6414;49.570;6.060;2023-06-22T07:45:04;22.20;99.90
12700;DHT22;6414;49.570;6.060;2023-06-22T07:47:50;22.20;99.90
12700;DHT22;6414;49.570;6.060;2023-06-22T07:50:36;22.20;99.90
12700;DHT22;6414;49.570;6.060;2023-06-22T07:53:23;22.20;99.90
12700;DHT22;6414;49.570;6.060;2023-06-22T07:56:12;22.20;99.90
12700;DHT22;6414;49.570;6.060;2023-06-22T07:58:58;22.20;99.90
12700;DHT22;6414;49.570;6.060;2023-06-22T08:01:44;22.20;99.90
12700;DHT22;6414;49.570;6.060;2023-06-22T08:04:31;22.10;99.90
12700;DHT22;6414;49.570;6.060;2023-06-22T08:07:18;22.10;99.90
12700;DHT22;6414;49.570;6.060;2023-06-22T08:10:05;22.00;99.90
12700;DHT22;6414;49.570;6.060;2023-06-22T08:12:50;21.90;99.90
12700;DHT22;6414;49.570;6.060;2023-06-22T08:15:37;21.90;99.90
12700;DHT22;6414;49.570;6.060;2023-06-22T08:18:24;21.70;99.90
12700;DHT22;6414;49.570;6.060;2023-06-22T08:21:09;21.70;99.90
12700;DHT22;6414;49.570;6.060;2023-06-22T08:23:56;21.60;99.90
12700;DHT22;6414;49.570;6.060;2023-06-22T08:26:42;21.60;99.90
12700;DHT22;6414;49.570;6.060;2023-06-22T08:29:28;21.40;99.90
12700;DHT22;6414;49.570;6.060;2023-06-22T08:32:14;21.30;99.90
12700;DHT22;6414;49.570;6.060;2023-06-22T08:35:00;21.10;99.90
12700;DHT22;6414;49.570;6.060;2023-06-22T08:37:46;20.90;99.90
12700;DHT22;6414;49.570;6.060;2023-06-22T08:40:33;20.70;99.90
12700;DHT22;6414;49.570;6.060;2023-06-22T08:43:20;20.60;99.90
12700;DHT22;6414;49.570;6.060;2023-06-22T08:46:07;20.40;99.90
12700;DHT22;6414;49.570;6.060;2023-06-22T08:48:54;20.10;99.90
12700;DHT22;6414;49.570;6.060;2023-06-22T08:51:40;20.10;99.90
12700;DHT22;6414;49.570;6.060;2023-06-22T08:54:26;20.10;99.90
12700;DHT22;6414;49.570;6.060;2023-06-22T08:57:13;20.20;99.90
12700;DHT22;6414;49.570;6.060;2023-06-22T08:59:59;20.20;99.90
12700;DHT22;6414;49.570;6.060;2023-06-22T09:02:46;20.20;99.90
12700;DHT22;6414;49.570;6.060;2023-06-22T09:05:32;20.30;99.90
12700;DHT22;6414;49.570;6.060;2023-06-22T09:08:19;20.20;99.90
12700;DHT22;6414;49.570;6.060;2023-06-22T09:11:05;20.30;99.90
12700;DHT22;6414;49.570;6.060;2023-06-22T09:13:51;20.30;99.90
12700;DHT22;6414;49.570;6.060;2023-06-22T09:16:37;20.30;99.90
12700;DHT22;6414;49.570;6.060;2023-06-22T09:19:23;20.30;99.90
12700;DHT22;6414;49.570;6.060;2023-06-22T09:22:10;20.30;99.90
12700;DHT22;6414;49.570;6.060;2023-06-22T09:24:56;20.40;99.90
12700;DHT22;6414;49.570;6.060;2023-06-22T09:27:41;20.70;99.90
12700;DHT22;6414;49.570;6.060;2023-06-22T09:30:28;20.90;99.90
12700;DHT22;6414;49.570;6.060;2023-06-22T09:33:15;21.00;99.90
12700;DHT22;6414;49.570;6.060;2023-06-22T09:36:01;21.00;99.90
12700;DHT22;6414;49.570;6.060;2023-06-22T09:38:48;21.30;99.90
12700;DHT22;6414;49.570;6.060;2023-06-22T09:41:33;21.30;99.90
12700;DHT22;6414;49.570;6.060;2023-06-22T09:44:20;21.90;99.90
12700;DHT22;6414;49.570;6.060;2023-06-22T09:47:06;22.10;99.90
12700;DHT22;6414;49.570;6.060;2023-06-22T09:49:51;21.80;99.90
12700;DHT22;6414;49.570;6.060;2023-06-22T09:52:37;21.60;99.90
12700;DHT22;6414;49.570;6.060;2023-06-22T09:55:25;22.40;99.90
12700;DHT22;6414;49.570;6.060;2023-06-22T09:58:11;22.40;99.90
12700;DHT22;6414;49.570;6.060;2023-06-22T10:00:57;22.90;99.90
12700;DHT22;6414;49.570;6.060;2023-06-22T10:03:43;23.50;99.90
12700;DHT22;6414;49.570;6.060;2023-06-22T10:06:30;23.60;99.90
12700;DHT22;6414;49.570;6.060;2023-06-22T10:09:17;23.10;99.90
12700;DHT22;6414;49.570;6.060;2023-06-22T10:12:03;23.10;99.90
12700;DHT22;6414;49.570;6.060;2023-06-22T10:14:50;23.00;99.90
12700;DHT22;6414;49.570;6.060;2023-06-22T10:17:37;22.80;99.90
12700;DHT22;6414;49.570;6.060;2023-06-22T10:20:23;22.80;99.90
12700;DHT22;6414;49.570;6.060;2023-06-22T10:23:10;22.70;99.90
12700;DHT22;6414;49.570;6.060;2023-06-22T10:25:56;22.60;99.90
12700;DHT22;6414;49.570;6.060;2023-06-22T10:28:43;22.80;99.90
12700;DHT22;6414;49.570;6.060;2023-06-22T10:31:29;23.10;99.90
12700;DHT22;6414;49.570;6.060;2023-06-22T10:34:15;23.10;99.90
12700;DHT22;6414;49.570;6.060;2023-06-22T10:37:01;23.20;99.90
12700;DHT22;6414;49.570;6.060;2023-06-22T10:39:48;23.30;99.90
12700;DHT22;6414;49.570;6.060;2023-06-22T10:42:34;23.40;99.90
12700;DHT22;6414;49.570;6.060;2023-06-22T10:45:20;23.50;99.90
12700;DHT22;6414;49.570;6.060;2023-06-22T10:48:06;23.50;99.90
12700;DHT22;6414;49.570;6.060;2023-06-22T10:50:52;23.60;99.90
12700;DHT22;6414;49.570;6.060;2023-06-22T10:53:38;23.60;99.90
12700;DHT22;6414;49.570;6.060;2023-06-22T10:56:24;23.50;99.90
12700;DHT22;6414;49.570;6.060;2023-06-22T10:59:12;24.00;99.90
12700;DHT22;6414;49.570;6.060;2023-06-22T11:01:58;24.00;99.90
12700;DHT22;6414;49.570;6.060;2023-06-22T11:04:44;24.00;99.90
12700;DHT22;6414;49.570;6.060;2023-06-22T11:07:30;23.90;99.90
12700;DHT22;6414;49.570;6.060;2023-06-22T11:10:16;24.10;99.90
12700;DHT22;6414;49.570;6.060;2023-06-22T11:13:02;24.00;99.90
12700;DHT22;6414;49.570;6.060;2023-06-22T11:15:48;23.90;99.90
12700;DHT22;6414;49.570;6.060;2023-06-22T11:18:35;24.10;99.90
12700;DHT22;6414;49.570;6.060;2023-06-22T11:21:21;24.10;99.90
12700;DHT22;6414;49.570;6.060;2023-06-22T11:24:08;24.10;99.90
12700;DHT22;6414;49.570;6.060;2023-06-22T11:26:54;24.30;99.90
12700;DHT22;6414;49.570;6.060;2023-06-22T11:29:40;24.30;99.90
12700;DHT22;6414;49.570;6.060;2023-06-22T11:32:27;24.20;99.90
12700;DHT22;6414;49.570;6.060;2023-06-22T11:35:14;24.50;99.90
12700;DHT22;6414;49.570;6.060;2023-06-22T11:38:01;24.40;99.90
12700;DHT22;6414;49.570;6.060;2023-06-22T11:40:47;24.40;99.90
12700;DHT22;6414;49.570;6.060;2023-06-22T11:43:33;24.60;99.90
12700;DHT22;6414;49.570;6.060;2023-06-22T11:46:20;24.80;99.90
12700;DHT22;6414;49.570;6.060;2023-06-22T11:49:07;24.80;99.90
12700;DHT22;6414;49.570;6.060;2023-06-22T11:51:52;24.80;99.90
12700;DHT22;6414;49.570;6.060;2023-06-22T11:54:38;24.70;99.90
12700;DHT22;6414;49.570;6.060;2023-06-22T11:57:24;24.50;99.90
12700;DHT22;6414;49.570;6.060;2023-06-22T12:00:11;24.50;99.90
12700;DHT22;6414;49.570;6.060;2023-06-22T12:03:02;24.70;99.90
12700;DHT22;6414;49.570;6.060;2023-06-22T12:05:50;24.90;99.90
12700;DHT22;6414;49.570;6.060;2023-06-22T12:08:37;24.90;99.90
12700;DHT22;6414;49.570;6.060;2023-06-22T12:11:22;24.90;99.90
12700;DHT22;6414;49.570;6.060;2023-06-22T12:14:08;24.90;99.90
12700;DHT22;6414;49.570;6.060;2023-06-22T12:16:54;24.80;99.90
12700;DHT22;6414;49.570;6.060;2023-06-22T12:19:41;24.60;99.90
12700;DHT22;6414;49.570;6.060;2023-06-22T12:22:27;24.60;99.90
12700;DHT22;6414;49.570;6.060;2023-06-22T12:25:13;24.70;99.90
12700;DHT22;6414;49.570;6.060;2023-06-22T12:28:00;24.80;99.90
12700;DHT22;6414;49.570;6.060;2023-06-22T12:30:46;25.10;99.90
12700;DHT22;6414;49.570;6.060;2023-06-22T12:33:33;25.30;99.90
12700;DHT22;6414;49.570;6.060;2023-06-22T12:36:19;25.30;99.90
12700;DHT22;6414;49.570;6.060;2023-06-22T12:39:05;25.10;99.90
12700;DHT22;6414;49.570;6.060;2023-06-22T12:41:51;24.80;99.90
12700;DHT22;6414;49.570;6.060;2023-06-22T12:44:40;24.70;99.90
12700;DHT22;6414;49.570;6.060;2023-06-22T12:47:27;24.60;99.90
12700;DHT22;6414;49.570;6.060;2023-06-22T12:50:12;24.50;99.90
12700;DHT22;6414;49.570;6.060;2023-06-22T12:52:58;24.40;99.90
12700;DHT22;6414;49.570;6.060;2023-06-22T12:55:45;24.30;99.90
12700;DHT22;6414;49.570;6.060;2023-06-22T12:58:31;23.70;99.90
12700;DHT22;6414;49.570;6.060;2023-06-22T13:01:18;23.70;99.90
12700;DHT22;6414;49.570;6.060;2023-06-22T13:04:04;23.50;99.90
12700;DHT22;6414;49.570;6.060;2023-06-22T13:06:50;22.90;99.90
12700;DHT22;6414;49.570;6.060;2023-06-22T13:09:36;22.50;99.90
12700;DHT22;6414;49.570;6.060;2023-06-22T13:12:22;22.00;99.90
12700;DHT22;6414;49.570;6.060;2023-06-22T13:15:09;21.80;99.90
12700;DHT22;6414;49.570;6.060;2023-06-22T13:17:55;21.80;99.90
12700;DHT22;6414;49.570;6.060;2023-06-22T13:20:40;21.70;99.90
12700;DHT22;6414;49.570;6.060;2023-06-22T13:23:27;21.80;99.90
12700;DHT22;6414;49.570;6.060;2023-06-22T13:26:14;21.80;99.90
12700;DHT22;6414;49.570;6.060;2023-06-22T13:29:00;21.80;99.90
12700;DHT22;6414;49.570;6.060;2023-06-22T13:31:46;21.60;99.90
12700;DHT22;6414;49.570;6.060;2023-06-22T13:34:32;21.60;99.90
12700;DHT22;6414;49.570;6.060;2023-06-22T13:37:18;21.50;99.90
12700;DHT22;6414;49.570;6.060;2023-06-22T13:40:05;21.40;99.90
12700;DHT22;6414;49.570;6.060;2023-06-22T13:42:50;21.40;99.90
12700;DHT22;6414;49.570;6.060;2023-06-22T13:45:37;21.40;99.90
12700;DHT22;6414;49.570;6.060;2023-06-22T13:48:23;21.20;99.90
12700;DHT22;6414;49.570;6.060;2023-06-22T13:51:09;21.20;99.90
12700;DHT22;6414;49.570;6.060;2023-06-22T13:53:55;21.20;99.90
12700;DHT22;6414;49.570;6.060;2023-06-22T13:56:41;21.10;99.90
12700;DHT22;6414;49.570;6.060;2023-06-22T13:59:28;21.30;99.90
12700;DHT22;6414;49.570;6.060;2023-06-22T14:02:14;21.30;99.90
12700;DHT22;6414;49.570;6.060;2023-06-22T14:05:00;21.50;99.90
12700;DHT22;6414;49.570;6.060;2023-06-22T14:07:46;21.60;99.90
12700;DHT22;6414;49.570;6.060;2023-06-22T14:10:32;21.60;99.90
12700;DHT22;6414;49.570;6.060;2023-06-22T14:13:19;21.90;99.90
12700;DHT22;6414;49.570;6.060;2023-06-22T14:16:05;21.80;99.90
12700;DHT22;6414;49.570;6.060;2023-06-22T14:18:52;22.10;99.90
12700;DHT22;6414;49.570;6.060;2023-06-22T14:21:38;22.00;99.90
12700;DHT22;6414;49.570;6.060;2023-06-22T14:24:24;22.20;99.90
12700;DHT22;6414;49.570;6.060;2023-06-22T14:27:10;22.40;99.90
12700;DHT22;6414;49.570;6.060;2023-06-22T14:29:56;22.60;99.90
12700;DHT22;6414;49.570;6.060;2023-06-22T14:32:43;22.80;99.90
12700;DHT22;6414;49.570;6.060;2023-06-22T14:35:28;22.70;99.90
12700;DHT22;6414;49.570;6.060;2023-06-22T14:38:15;22.60;99.90
12700;DHT22;6414;49.570;6.060;2023-06-22T14:41:01;22.60;99.90
12700;DHT22;6414;49.570;6.060;2023-06-22T14:43:47;22.50;99.90
12700;DHT22;6414;49.570;6.060;2023-06-22T14:46:34;22.70;99.90
12700;DHT22;6414;49.570;6.060;2023-06-22T14:49:20;22.70;99.90
12700;DHT22;6414;49.570;6.060;2023-06-22T14:52:07;22.70;99.90
12700;DHT22;6414;49.570;6.060;2023-06-22T14:54:53;22.70;99.90
12700;DHT22;6414;49.570;6.060;2023-06-22T14:57:39;22.80;99.90
12700;DHT22;6414;49.570;6.060;2023-06-22T15:00:25;22.60;99.90
12700;DHT22;6414;49.570;6.060;2023-06-22T15:03:11;22.70;99.90
12700;DHT22;6414;49.570;6.060;2023-06-22T15:05:56;22.60;99.90
12700;DHT22;6414;49.570;6.060;2023-06-22T15:08:43;22.40;99.90
12700;DHT22;6414;49.570;6.060;2023-06-22T15:11:29;22.30;99.90
12700;DHT22;6414;49.570;6.060;2023-06-22T15:14:15;22.30;99.90
12700;DHT22;6414;49.570;6.060;2023-06-22T15:17:02;22.10;99.90
12700;DHT22;6414;49.570;6.060;2023-06-22T15:19:48;22.10;99.90
12700;DHT22;6414;49.570;6.060;2023-06-22T15:22:33;22.00;99.90
12700;DHT22;6414;49.570;6.060;2023-06-22T15:25:19;21.90;99.90
12700;DHT22;6414;49.570;6.060;2023-06-22T15:28:06;21.90;99.90
12700;DHT22;6414;49.570;6.060;2023-06-22T15:30:52;22.00;99.90
12700;DHT22;6414;49.570;6.060;2023-06-22T15:33:38;22.10;99.90
12700;DHT22;6414;49.570;6.060;2023-06-22T15:36:24;22.20;99.90
12700;DHT22;6414;49.570;6.060;2023-06-22T15:39:11;22.00;99.90
12700;DHT22;6414;49.570;6.060;2023-06-22T15:41:57;22.00;99.90
12700;DHT22;6414;49.570;6.060;2023-06-22T15:44:44;22.00;99.90
12700;DHT22;6414;49.570;6.060;2023-06-22T15:47:31;21.90;99.90
12700;DHT22;6414;49.570;6.060;2023-06-22T15:50:17;21.90;99.90
12700;DHT22;6414;49.570;6.060;2023-06-22T15:53:03;21.80;99.90
12700;DHT22;6414;49.570;6.060;2023-06-22T15:55:49;21.70;99.90
12700;DHT22;6414;49.570;6.060;2023-06-22T15:58:36;21.50;99.90
12700;DHT22;6414;49.570;6.060;2023-06-22T16:01:22;21.50;99.90
12700;DHT22;6414;49.570;6.060;2023-06-22T16:04:08;21.20;99.90
12700;DHT22;6414;49.570;6.060;2023-06-22T16:06:54;21.00;99.90
12700;DHT22;6414;49.570;6.060;2023-06-22T16:09:41;20.80;99.90
12700;DHT22;6414;49.570;6.060;2023-06-22T16:12:27;20.80;99.90
12700;DHT22;6414;49.570;6.060;2023-06-22T16:15:14;20.90;99.90
12700;DHT22;6414;49.570;6.060;2023-06-22T16:18:00;20.90;99.90
12700;DHT22;6414;49.570;6.060;2023-06-22T16:20:46;20.80;99.90
12700;DHT22;6414;49.570;6.060;2023-06-22T16:23:32;20.60;99.90
12700;DHT22;6414;49.570;6.060;2023-06-22T16:26:18;20.30;99.90
12700;DHT22;6414;49.570;6.060;2023-06-22T16:29:05;20.10;99.90
12700;DHT22;6414;49.570;6.060;2023-06-22T16:31:51;20.10;99.90
12700;DHT22;6414;49.570;6.060;2023-06-22T16:34:38;20.10;99.90
12700;DHT22;6414;49.570;6.060;2023-06-22T16:37:25;20.00;99.90
12700;DHT22;6414;49.570;6.060;2023-06-22T16:40:11;19.90;99.90
12700;DHT22;6414;49.570;6.060;2023-06-22T16:42:57;19.90;99.90
12700;DHT22;6414;49.570;6.060;2023-06-22T16:45:43;20.00;99.90
12700;DHT22;6414;49.570;6.060;2023-06-22T16:48:30;20.30;99.90
12700;DHT22;6414;49.570;6.060;2023-06-22T16:51:15;20.50;99.90
12700;DHT22;6414;49.570;6.060;2023-06-22T16:54:01;20.50;99.90
12700;DHT22;6414;49.570;6.060;2023-06-22T16:56:48;20.60;99.90
12700;DHT22;6414;49.570;6.060;2023-06-22T16:59:34;20.40;99.90
12700;DHT22;6414;49.570;6.060;2023-06-22T17:02:21;20.10;99.90
12700;DHT22;6414;49.570;6.060;2023-06-22T17:05:07;20.00;99.90
12700;DHT22;6414;49.570;6.060;2023-06-22T17:07:53;20.00;99.90
12700;DHT22;6414;49.570;6.060;2023-06-22T17:10:38;20.00;99.90
12700;DHT22;6414;49.570;6.060;2023-06-22T17:13:24;20.00;99.90
12700;DHT22;6414;49.570;6.060;2023-06-22T17:16:10;20.00;99.90
12700;DHT22;6414;49.570;6.060;2023-06-22T17:18:56;19.80;99.90
12700;DHT22;6414;49.570;6.060;2023-06-22T17:21:47;19.60;99.90
12700;DHT22;6414;49.570;6.060;2023-06-22T17:24:30;19.50;99.90
12700;DHT22;6414;49.570;6.060;2023-06-22T17:27:25;19.50;99.90
12700;DHT22;6414;49.570;6.060;2023-06-22T17:30:07;19.60;99.90
12700;DHT22;6414;49.570;6.060;2023-06-22T17:32:52;19.60;99.90
12700;DHT22;6414;49.570;6.060;2023-06-22T17:35:50;19.60;99.90
12700;DHT22;6414;49.570;6.060;2023-06-22T17:38:36;19.50;99.90
12700;DHT22;6414;49.570;6.060;2023-06-22T17:41:28;19.50;99.90
12700;DHT22;6414;49.570;6.060;2023-06-22T17:44:09;19.60;99.90
12700;DHT22;6414;49.570;6.060;2023-06-22T17:46:58;19.50;99.90
12700;DHT22;6414;49.570;6.060;2023-06-22T17:49:45;19.20;99.90
12700;DHT22;6414;49.570;6.060;2023-06-22T17:52:31;19.00;99.90